sensor_id;sensor_type;location;lat;lon;timestamp;P1;durP1;ratioP1;P2;durP2;ratioP2
66353;SDS011;53150;48.296;16.452;2023-03-24T00:01:10;24.95;;;17.98;;
66353;SDS011;53150;48.296;16.452;2023-03-24T00:03:36;26.13;;;18.75;;
66353;SDS011;53150;48.296;16.452;2023-03-24T00:06:02;27.67;;;18.33;;
66353;SDS011;53150;48.296;16.452;2023-03-24T00:08:33;25.95;;;18.58;;
66353;SDS011;53150;48.296;16.452;2023-03-24T00:11:00;26.25;;;18.50;;
66353;SDS011;53150;48.296;16.452;2023-03-24T00:13:27;27.85;;;19.63;;
66353;SDS011;53150;48.296;16.452;2023-03-24T00:15:53;26.42;;;19.23;;
66353;SDS011;53150;48.296;16.452;2023-03-24T00:18:20;28.05;;;19.42;;
66353;SDS011;53150;48.296;16.452;2023-03-24T00:20:50;27.85;;;18.63;;
66353;SDS011;53150;48.296;16.452;2023-03-24T00:23:22;26.67;;;20.50;;
66353;SDS011;53150;48.296;16.452;2023-03-24T00:25:57;27.13;;;18.70;;
66353;SDS011;53150;48.296;16.452;2023-03-24T00:28:23;27.35;;;19.15;;
66353;SDS011;53150;48.296;16.452;2023-03-24T00:30:50;27.73;;;20.15;;
66353;SDS011;53150;48.296;16.452;2023-03-24T00:33:16;29.10;;;20.95;;
66353;SDS011;53150;48.296;16.452;2023-03-24T00:35:42;27.35;;;20.20;;
66353;SDS011;53150;48.296;16.452;2023-03-24T00:38:09;27.83;;;18.95;;
66353;SDS011;53150;48.296;16.452;2023-03-24T00:40:36;28.63;;;19.40;;
66353;SDS011;53150;48.296;16.452;2023-03-24T00:43:03;27.55;;;19.60;;
66353;SDS011;53150;48.296;16.452;2023-03-24T00:45:29;30.42;;;20.58;;
66353;SDS011;53150;48.296;16.452;2023-03-24T00:47:58;29.40;;;20.48;;
66353;SDS011;53150;48.296;16.452;2023-03-24T00:50:24;31.10;;;21.88;;
66353;SDS011;53150;48.296;16.452;2023-03-24T00:52:51;27.60;;;19.80;;
66353;SDS011;53150;48.296;16.452;2023-03-24T00:55:17;28.48;;;20.77;;
66353;SDS011;53150;48.296;16.452;2023-03-24T00:57:46;26.55;;;18.92;;
66353;SDS011;53150;48.296;16.452;2023-03-24T01:00:24;31.05;;;21.00;;
66353;SDS011;53150;48.296;16.452;2023-03-24T01:02:51;26.40;;;20.40;;
66353;SDS011;53150;48.296;16.452;2023-03-24T01:05:18;27.98;;;18.25;;
66353;SDS011;53150;48.296;16.452;2023-03-24T01:07:45;29.90;;;20.15;;
66353;SDS011;53150;48.296;16.452;2023-03-24T01:10:16;29.73;;;19.90;;
66353;SDS011;53150;48.296;16.452;2023-03-24T01:12:43;27.63;;;20.15;;
66353;SDS011;53150;48.296;16.452;2023-03-24T01:15:13;26.48;;;19.77;;
66353;SDS011;53150;48.296;16.452;2023-03-24T01:17:40;28.35;;;20.52;;
66353;SDS011;53150;48.296;16.452;2023-03-24T01:20:06;26.70;;;20.05;;
66353;SDS011;53150;48.296;16.452;2023-03-24T01:22:34;28.83;;;19.55;;
66353;SDS011;53150;48.296;16.452;2023-03-24T01:25:02;32.38;;;21.40;;
66353;SDS011;53150;48.296;16.452;2023-03-24T01:27:28;31.67;;;20.00;;
66353;SDS011;53150;48.296;16.452;2023-03-24T01:30:01;28.92;;;20.17;;
66353;SDS011;53150;48.296;16.452;2023-03-24T01:32:28;31.80;;;20.55;;
66353;SDS011;53150;48.296;16.452;2023-03-24T01:34:54;29.15;;;20.38;;
66353;SDS011;53150;48.296;16.452;2023-03-24T01:37:20;28.27;;;19.92;;
66353;SDS011;53150;48.296;16.452;2023-03-24T01:39:47;27.15;;;19.02;;
66353;SDS011;53150;48.296;16.452;2023-03-24T01:42:18;27.75;;;19.27;;
66353;SDS011;53150;48.296;16.452;2023-03-24T01:44:46;26.83;;;19.33;;
66353;SDS011;53150;48.296;16.452;2023-03-24T01:47:12;28.08;;;18.67;;
66353;SDS011;53150;48.296;16.452;2023-03-24T01:52:06;26.20;;;19.02;;
66353;SDS011;53150;48.296;16.452;2023-03-24T01:54:35;27.55;;;18.67;;
66353;SDS011;53150;48.296;16.452;2023-03-24T01:57:04;27.65;;;19.15;;
66353;SDS011;53150;48.296;16.452;2023-03-24T01:59:32;24.90;;;18.63;;
66353;SDS011;53150;48.296;16.452;2023-03-24T02:01:59;27.13;;;17.73;;
66353;SDS011;53150;48.296;16.452;2023-03-24T02:04:32;29.33;;;20.15;;
66353;SDS011;53150;48.296;16.452;2023-03-24T02:07:04;27.90;;;18.77;;
66353;SDS011;53150;48.296;16.452;2023-03-24T02:09:33;26.17;;;19.25;;
66353;SDS011;53150;48.296;16.452;2023-03-24T02:11:59;25.63;;;19.00;;
66353;SDS011;53150;48.296;16.452;2023-03-24T02:14:27;27.02;;;18.17;;
66353;SDS011;53150;48.296;16.452;2023-03-24T02:19:34;27.98;;;18.63;;
66353;SDS011;53150;48.296;16.452;2023-03-24T02:35:27;30.15;;;21.35;;
66353;SDS011;53150;48.296;16.452;2023-03-24T02:37:53;32.47;;;20.83;;
66353;SDS011;53150;48.296;16.452;2023-03-24T02:40:31;32.83;;;22.13;;
66353;SDS011;53150;48.296;16.452;2023-03-24T02:43:00;35.13;;;21.60;;
66353;SDS011;53150;48.296;16.452;2023-03-24T02:50:35;29.08;;;20.55;;
66353;SDS011;53150;48.296;16.452;2023-03-24T02:55:45;29.75;;;19.98;;
66353;SDS011;53150;48.296;16.452;2023-03-24T02:58:17;31.55;;;21.90;;
66353;SDS011;53150;48.296;16.452;2023-03-24T03:00:45;27.13;;;19.92;;
66353;SDS011;53150;48.296;16.452;2023-03-24T03:03:20;29.65;;;20.20;;
66353;SDS011;53150;48.296;16.452;2023-03-24T03:05:49;28.52;;;19.75;;
66353;SDS011;53150;48.296;16.452;2023-03-24T03:08:17;27.45;;;19.83;;
66353;SDS011;53150;48.296;16.452;2023-03-24T03:10:45;28.40;;;20.98;;
66353;SDS011;53150;48.296;16.452;2023-03-24T03:13:14;29.20;;;19.95;;
66353;SDS011;53150;48.296;16.452;2023-03-24T03:15:42;32.95;;;20.95;;
66353;SDS011;53150;48.296;16.452;2023-03-24T03:18:16;31.80;;;21.05;;
66353;SDS011;53150;48.296;16.452;2023-03-24T03:20:47;30.83;;;20.73;;
66353;SDS011;53150;48.296;16.452;2023-03-24T03:23:22;30.57;;;20.73;;
66353;SDS011;53150;48.296;16.452;2023-03-24T03:25:51;26.73;;;19.80;;
66353;SDS011;53150;48.296;16.452;2023-03-24T03:28:19;30.45;;;20.38;;
66353;SDS011;53150;48.296;16.452;2023-03-24T03:30:55;33.15;;;21.10;;
66353;SDS011;53150;48.296;16.452;2023-03-24T03:33:23;28.38;;;19.85;;
66353;SDS011;53150;48.296;16.452;2023-03-24T03:35:58;31.08;;;20.80;;
66353;SDS011;53150;48.296;16.452;2023-03-24T03:38:38;30.77;;;20.95;;
66353;SDS011;53150;48.296;16.452;2023-03-24T03:41:06;30.13;;;20.50;;
66353;SDS011;53150;48.296;16.452;2023-03-24T03:43:33;28.83;;;20.60;;
66353;SDS011;53150;48.296;16.452;2023-03-24T03:45:59;30.20;;;21.70;;
66353;SDS011;53150;48.296;16.452;2023-03-24T03:48:26;27.98;;;19.77;;
66353;SDS011;53150;48.296;16.452;2023-03-24T03:50:53;33.67;;;22.20;;
66353;SDS011;53150;48.296;16.452;2023-03-24T03:53:20;30.80;;;20.92;;
66353;SDS011;53150;48.296;16.452;2023-03-24T03:55:48;32.05;;;21.00;;
66353;SDS011;53150;48.296;16.452;2023-03-24T03:58:16;29.98;;;19.83;;
66353;SDS011;53150;48.296;16.452;2023-03-24T04:00:42;29.40;;;20.02;;
66353;SDS011;53150;48.296;16.452;2023-03-24T04:03:16;30.48;;;21.40;;
66353;SDS011;53150;48.296;16.452;2023-03-24T04:05:49;28.48;;;19.88;;
66353;SDS011;53150;48.296;16.452;2023-03-24T04:13:30;28.98;;;19.98;;
66353;SDS011;53150;48.296;16.452;2023-03-24T04:16:08;29.83;;;20.42;;
66353;SDS011;53150;48.296;16.452;2023-03-24T04:19:24;29.27;;;19.58;;
66353;SDS011;53150;48.296;16.452;2023-03-24T04:26:30;30.30;;;20.42;;
66353;SDS011;53150;48.296;16.452;2023-03-24T04:29:11;28.00;;;19.08;;
66353;SDS011;53150;48.296;16.452;2023-03-24T04:31:43;28.20;;;19.55;;
66353;SDS011;53150;48.296;16.452;2023-03-24T04:34:24;30.52;;;19.83;;
66353;SDS011;53150;48.296;16.452;2023-03-24T04:36:56;28.55;;;19.77;;
66353;SDS011;53150;48.296;16.452;2023-03-24T04:39:28;27.52;;;19.83;;
66353;SDS011;53150;48.296;16.452;2023-03-24T04:41:56;28.70;;;19.77;;
66353;SDS011;53150;48.296;16.452;2023-03-24T04:44:22;29.75;;;21.10;;
66353;SDS011;53150;48.296;16.452;2023-03-24T04:46:49;28.65;;;20.25;;
66353;SDS011;53150;48.296;16.452;2023-03-24T04:49:15;30.00;;;21.17;;
66353;SDS011;53150;48.296;16.452;2023-03-24T04:51:43;33.88;;;20.95;;
66353;SDS011;53150;48.296;16.452;2023-03-24T04:54:10;35.10;;;21.90;;
66353;SDS011;53150;48.296;16.452;2023-03-24T04:59:05;28.85;;;20.52;;
66353;SDS011;53150;48.296;16.452;2023-03-24T05:01:32;31.85;;;21.15;;
66353;SDS011;53150;48.296;16.452;2023-03-24T05:04:01;31.05;;;22.15;;
66353;SDS011;53150;48.296;16.452;2023-03-24T05:06:28;30.08;;;20.55;;
66353;SDS011;53150;48.296;16.452;2023-03-24T05:08:54;31.35;;;21.60;;
66353;SDS011;53150;48.296;16.452;2023-03-24T05:11:23;31.02;;;20.42;;
66353;SDS011;53150;48.296;16.452;2023-03-24T05:13:49;31.75;;;20.50;;
66353;SDS011;53150;48.296;16.452;2023-03-24T05:16:15;30.95;;;20.90;;
66353;SDS011;53150;48.296;16.452;2023-03-24T05:18:41;28.63;;;20.27;;
66353;SDS011;53150;48.296;16.452;2023-03-24T05:21:07;32.65;;;19.35;;
66353;SDS011;53150;48.296;16.452;2023-03-24T05:23:33;30.52;;;19.70;;
66353;SDS011;53150;48.296;16.452;2023-03-24T05:25:59;29.70;;;19.23;;
66353;SDS011;53150;48.296;16.452;2023-03-24T05:28:25;29.80;;;19.20;;
66353;SDS011;53150;48.296;16.452;2023-03-24T05:30:51;29.83;;;17.90;;
66353;SDS011;53150;48.296;16.452;2023-03-24T05:33:17;30.00;;;22.65;;
66353;SDS011;53150;48.296;16.452;2023-03-24T05:35:44;33.88;;;24.08;;
66353;SDS011;53150;48.296;16.452;2023-03-24T05:38:10;32.35;;;23.60;;
66353;SDS011;53150;48.296;16.452;2023-03-24T05:40:36;27.77;;;20.38;;
66353;SDS011;53150;48.296;16.452;2023-03-24T05:43:02;27.20;;;20.15;;
66353;SDS011;53150;48.296;16.452;2023-03-24T05:45:28;26.85;;;17.23;;
66353;SDS011;53150;48.296;16.452;2023-03-24T05:47:54;23.23;;;15.35;;
66353;SDS011;53150;48.296;16.452;2023-03-24T05:50:20;21.35;;;16.05;;
66353;SDS011;53150;48.296;16.452;2023-03-24T05:52:48;26.50;;;15.73;;
66353;SDS011;53150;48.296;16.452;2023-03-24T05:55:15;25.15;;;16.58;;
66353;SDS011;53150;48.296;16.452;2023-03-24T05:57:41;24.88;;;16.05;;
66353;SDS011;53150;48.296;16.452;2023-03-24T06:00:08;22.48;;;16.17;;
66353;SDS011;53150;48.296;16.452;2023-03-24T06:02:39;22.52;;;15.85;;
66353;SDS011;53150;48.296;16.452;2023-03-24T06:05:05;24.15;;;16.75;;
66353;SDS011;53150;48.296;16.452;2023-03-24T06:07:32;23.55;;;16.15;;
66353;SDS011;53150;48.296;16.452;2023-03-24T06:09:58;21.75;;;15.75;;
66353;SDS011;53150;48.296;16.452;2023-03-24T06:12:27;20.73;;;14.90;;
66353;SDS011;53150;48.296;16.452;2023-03-24T06:14:55;23.92;;;17.13;;
66353;SDS011;53150;48.296;16.452;2023-03-24T06:17:22;24.20;;;17.13;;
66353;SDS011;53150;48.296;16.452;2023-03-24T06:19:48;22.95;;;17.10;;
66353;SDS011;53150;48.296;16.452;2023-03-24T06:22:18;22.65;;;16.13;;
66353;SDS011;53150;48.296;16.452;2023-03-24T06:24:44;23.17;;;15.63;;
66353;SDS011;53150;48.296;16.452;2023-03-24T06:27:12;22.85;;;16.73;;
66353;SDS011;53150;48.296;16.452;2023-03-24T06:29:38;23.60;;;16.80;;
66353;SDS011;53150;48.296;16.452;2023-03-24T06:32:07;23.23;;;16.67;;
66353;SDS011;53150;48.296;16.452;2023-03-24T06:34:33;22.98;;;16.85;;
66353;SDS011;53150;48.296;16.452;2023-03-24T06:36:59;24.58;;;17.35;;
66353;SDS011;53150;48.296;16.452;2023-03-24T06:39:25;23.90;;;16.60;;
66353;SDS011;53150;48.296;16.452;2023-03-24T06:41:51;29.23;;;19.38;;
66353;SDS011;53150;48.296;16.452;2023-03-24T06:44:17;25.23;;;17.50;;
66353;SDS011;53150;48.296;16.452;2023-03-24T06:46:43;24.83;;;18.27;;
66353;SDS011;53150;48.296;16.452;2023-03-24T06:49:10;26.00;;;17.92;;
66353;SDS011;53150;48.296;16.452;2023-03-24T06:51:36;24.70;;;16.80;;
66353;SDS011;53150;48.296;16.452;2023-03-24T06:54:02;27.35;;;17.52;;
66353;SDS011;53150;48.296;16.452;2023-03-24T06:56:28;25.30;;;17.30;;
66353;SDS011;53150;48.296;16.452;2023-03-24T06:58:54;26.02;;;16.98;;
66353;SDS011;53150;48.296;16.452;2023-03-24T07:01:21;26.75;;;18.02;;
66353;SDS011;53150;48.296;16.452;2023-03-24T07:03:48;28.05;;;18.65;;
66353;SDS011;53150;48.296;16.452;2023-03-24T07:06:14;27.98;;;18.67;;
66353;SDS011;53150;48.296;16.452;2023-03-24T07:08:40;25.65;;;18.17;;
66353;SDS011;53150;48.296;16.452;2023-03-24T07:11:06;23.90;;;17.23;;
66353;SDS011;53150;48.296;16.452;2023-03-24T07:13:33;21.77;;;16.45;;
66353;SDS011;53150;48.296;16.452;2023-03-24T07:15:59;23.42;;;16.58;;
66353;SDS011;53150;48.296;16.452;2023-03-24T07:18:26;24.77;;;16.80;;
66353;SDS011;53150;48.296;16.452;2023-03-24T07:20:52;23.35;;;16.35;;
66353;SDS011;53150;48.296;16.452;2023-03-24T07:23:18;21.75;;;16.02;;
66353;SDS011;53150;48.296;16.452;2023-03-24T07:25:44;22.63;;;15.70;;
66353;SDS011;53150;48.296;16.452;2023-03-24T07:28:10;25.02;;;17.13;;
66353;SDS011;53150;48.296;16.452;2023-03-24T07:30:36;24.92;;;17.65;;
66353;SDS011;53150;48.296;16.452;2023-03-24T07:33:03;23.48;;;16.63;;
66353;SDS011;53150;48.296;16.452;2023-03-24T07:35:30;22.33;;;15.43;;
66353;SDS011;53150;48.296;16.452;2023-03-24T07:37:56;21.38;;;15.15;;
66353;SDS011;53150;48.296;16.452;2023-03-24T07:40:22;21.08;;;15.73;;
66353;SDS011;53150;48.296;16.452;2023-03-24T07:42:48;22.55;;;16.30;;
66353;SDS011;53150;48.296;16.452;2023-03-24T07:45:15;22.77;;;16.15;;
66353;SDS011;53150;48.296;16.452;2023-03-24T07:47:42;22.45;;;16.25;;
66353;SDS011;53150;48.296;16.452;2023-03-24T07:50:09;22.38;;;15.95;;
66353;SDS011;53150;48.296;16.452;2023-03-24T07:52:39;20.05;;;15.60;;
66353;SDS011;53150;48.296;16.452;2023-03-24T07:55:06;21.23;;;15.30;;
66353;SDS011;53150;48.296;16.452;2023-03-24T07:57:34;23.67;;;15.52;;
66353;SDS011;53150;48.296;16.452;2023-03-24T08:00:04;22.42;;;15.73;;
66353;SDS011;53150;48.296;16.452;2023-03-24T08:02:38;22.33;;;15.48;;
66353;SDS011;53150;48.296;16.452;2023-03-24T08:05:04;22.75;;;15.73;;
66353;SDS011;53150;48.296;16.452;2023-03-24T08:07:30;23.60;;;16.02;;
66353;SDS011;53150;48.296;16.452;2023-03-24T08:09:56;21.52;;;15.55;;
66353;SDS011;53150;48.296;16.452;2023-03-24T08:12:22;21.23;;;14.63;;
66353;SDS011;53150;48.296;16.452;2023-03-24T08:14:48;20.38;;;13.93;;
66353;SDS011;53150;48.296;16.452;2023-03-24T08:17:14;19.27;;;14.73;;
66353;SDS011;53150;48.296;16.452;2023-03-24T08:19:40;22.65;;;15.23;;
66353;SDS011;53150;48.296;16.452;2023-03-24T08:22:06;20.65;;;14.40;;
66353;SDS011;53150;48.296;16.452;2023-03-24T08:24:32;17.83;;;14.63;;
66353;SDS011;53150;48.296;16.452;2023-03-24T08:26:58;21.08;;;15.65;;
66353;SDS011;53150;48.296;16.452;2023-03-24T08:29:26;22.13;;;15.35;;
66353;SDS011;53150;48.296;16.452;2023-03-24T08:31:52;23.67;;;16.20;;
66353;SDS011;53150;48.296;16.452;2023-03-24T08:34:18;22.98;;;16.02;;
66353;SDS011;53150;48.296;16.452;2023-03-24T08:36:44;21.27;;;14.98;;
66353;SDS011;53150;48.296;16.452;2023-03-24T08:39:11;20.95;;;15.60;;
66353;SDS011;53150;48.296;16.452;2023-03-24T08:41:37;20.85;;;14.40;;
66353;SDS011;53150;48.296;16.452;2023-03-24T08:44:03;20.50;;;14.48;;
66353;SDS011;53150;48.296;16.452;2023-03-24T08:46:30;21.30;;;14.77;;
66353;SDS011;53150;48.296;16.452;2023-03-24T08:48:57;22.10;;;15.75;;
66353;SDS011;53150;48.296;16.452;2023-03-24T08:51:24;21.70;;;15.52;;
66353;SDS011;53150;48.296;16.452;2023-03-24T08:53:50;21.70;;;15.07;;
66353;SDS011;53150;48.296;16.452;2023-03-24T08:56:17;20.45;;;15.20;;
66353;SDS011;53150;48.296;16.452;2023-03-24T08:58:44;20.10;;;14.05;;
66353;SDS011;53150;48.296;16.452;2023-03-24T09:01:12;20.45;;;15.25;;
66353;SDS011;53150;48.296;16.452;2023-03-24T09:03:38;19.98;;;15.65;;
66353;SDS011;53150;48.296;16.452;2023-03-24T09:06:05;19.40;;;14.70;;
66353;SDS011;53150;48.296;16.452;2023-03-24T09:08:31;23.02;;;15.48;;
66353;SDS011;53150;48.296;16.452;2023-03-24T09:10:57;18.52;;;14.88;;
66353;SDS011;53150;48.296;16.452;2023-03-24T09:13:23;21.10;;;14.98;;
66353;SDS011;53150;48.296;16.452;2023-03-24T09:15:51;20.52;;;14.35;;
66353;SDS011;53150;48.296;16.452;2023-03-24T09:18:17;22.58;;;14.68;;
66353;SDS011;53150;48.296;16.452;2023-03-24T09:20:44;22.13;;;14.68;;
66353;SDS011;53150;48.296;16.452;2023-03-24T09:23:10;20.63;;;14.60;;
66353;SDS011;53150;48.296;16.452;2023-03-24T09:25:36;18.35;;;13.38;;
66353;SDS011;53150;48.296;16.452;2023-03-24T09:28:03;19.02;;;14.02;;
66353;SDS011;53150;48.296;16.452;2023-03-24T09:30:29;21.65;;;14.57;;
66353;SDS011;53150;48.296;16.452;2023-03-24T09:32:55;16.45;;;12.55;;
66353;SDS011;53150;48.296;16.452;2023-03-24T09:35:23;18.98;;;13.75;;
66353;SDS011;53150;48.296;16.452;2023-03-24T09:37:49;18.98;;;12.60;;
66353;SDS011;53150;48.296;16.452;2023-03-24T09:42:45;15.27;;;10.82;;
66353;SDS011;53150;48.296;16.452;2023-03-24T09:45:16;16.08;;;12.65;;
66353;SDS011;53150;48.296;16.452;2023-03-24T09:47:44;14.63;;;10.23;;
66353;SDS011;53150;48.296;16.452;2023-03-24T09:50:16;14.60;;;10.48;;
66353;SDS011;53150;48.296;16.452;2023-03-24T09:52:44;13.27;;;10.32;;
66353;SDS011;53150;48.296;16.452;2023-03-24T09:55:18;12.68;;;10.32;;
66353;SDS011;53150;48.296;16.452;2023-03-24T09:57:46;13.38;;;9.82;;
66353;SDS011;53150;48.296;16.452;2023-03-24T10:00:21;14.35;;;10.57;;
66353;SDS011;53150;48.296;16.452;2023-03-24T10:02:48;15.43;;;10.52;;
66353;SDS011;53150;48.296;16.452;2023-03-24T10:05:22;16.83;;;10.60;;
66353;SDS011;53150;48.296;16.452;2023-03-24T10:07:51;17.02;;;10.65;;
66353;SDS011;53150;48.296;16.452;2023-03-24T10:10:26;13.55;;;9.82;;
66353;SDS011;53150;48.296;16.452;2023-03-24T10:12:55;13.30;;;9.85;;
66353;SDS011;53150;48.296;16.452;2023-03-24T10:15:31;15.32;;;10.02;;
66353;SDS011;53150;48.296;16.452;2023-03-24T10:18:09;13.32;;;9.95;;
66353;SDS011;53150;48.296;16.452;2023-03-24T10:25:46;14.82;;;10.73;;
66353;SDS011;53150;48.296;16.452;2023-03-24T10:28:22;13.88;;;9.85;;
66353;SDS011;53150;48.296;16.452;2023-03-24T10:30:50;12.23;;;9.48;;
66353;SDS011;53150;48.296;16.452;2023-03-24T10:33:17;14.52;;;9.90;;
66353;SDS011;53150;48.296;16.452;2023-03-24T10:36:05;13.02;;;9.57;;
66353;SDS011;53150;48.296;16.452;2023-03-24T10:38:29;12.40;;;9.02;;
66353;SDS011;53150;48.296;16.452;2023-03-24T10:40:55;10.73;;;8.95;;
66353;SDS011;53150;48.296;16.452;2023-03-24T10:43:22;12.90;;;9.32;;
66353;SDS011;53150;48.296;16.452;2023-03-24T10:45:50;12.55;;;9.68;;
66353;SDS011;53150;48.296;16.452;2023-03-24T10:49:06;12.43;;;8.65;;
66353;SDS011;53150;48.296;16.452;2023-03-24T10:51:06;13.40;;;10.07;;
66353;SDS011;53150;48.296;16.452;2023-03-24T10:53:36;14.05;;;9.68;;
66353;SDS011;53150;48.296;16.452;2023-03-24T10:56:03;14.15;;;10.00;;
66353;SDS011;53150;48.296;16.452;2023-03-24T10:58:39;12.40;;;9.32;;
66353;SDS011;53150;48.296;16.452;2023-03-24T11:01:16;13.35;;;8.82;;
66353;SDS011;53150;48.296;16.452;2023-03-24T11:03:46;14.82;;;9.07;;
66353;SDS011;53150;48.296;16.452;2023-03-24T11:06:15;12.73;;;8.55;;
66353;SDS011;53150;48.296;16.452;2023-03-24T11:08:41;12.25;;;8.68;;
66353;SDS011;53150;48.296;16.452;2023-03-24T11:11:26;13.77;;;8.90;;
66353;SDS011;53150;48.296;16.452;2023-03-24T11:13:53;14.55;;;9.52;;
66353;SDS011;53150;48.296;16.452;2023-03-24T11:16:24;13.23;;;9.05;;
66353;SDS011;53150;48.296;16.452;2023-03-24T11:18:58;12.50;;;9.02;;
66353;SDS011;53150;48.296;16.452;2023-03-24T11:21:26;13.13;;;9.10;;
66353;SDS011;53150;48.296;16.452;2023-03-24T11:23:52;14.80;;;10.32;;
66353;SDS011;53150;48.296;16.452;2023-03-24T11:26:27;13.13;;;9.25;;
66353;SDS011;53150;48.296;16.452;2023-03-24T11:28:55;14.27;;;10.30;;
66353;SDS011;53150;48.296;16.452;2023-03-24T11:31:29;13.23;;;9.00;;
66353;SDS011;53150;48.296;16.452;2023-03-24T11:34:05;13.45;;;10.43;;
66353;SDS011;53150;48.296;16.452;2023-03-24T11:36:38;12.52;;;9.20;;
66353;SDS011;53150;48.296;16.452;2023-03-24T11:41:32;14.27;;;9.07;;
66353;SDS011;53150;48.296;16.452;2023-03-24T11:44:39;12.63;;;8.93;;
66353;SDS011;53150;48.296;16.452;2023-03-24T11:46:58;15.50;;;9.80;;
66353;SDS011;53150;48.296;16.452;2023-03-24T11:49:26;12.48;;;9.23;;
66353;SDS011;53150;48.296;16.452;2023-03-24T11:51:54;15.82;;;10.63;;
66353;SDS011;53150;48.296;16.452;2023-03-24T11:54:22;15.18;;;10.35;;
66353;SDS011;53150;48.296;16.452;2023-03-24T11:56:52;16.63;;;10.25;;
66353;SDS011;53150;48.296;16.452;2023-03-24T12:12:13;13.98;;;9.48;;
66353;SDS011;53150;48.296;16.452;2023-03-24T12:20:27;12.00;;;9.98;;
66353;SDS011;53150;48.296;16.452;2023-03-24T12:22:57;15.05;;;10.05;;
66353;SDS011;53150;48.296;16.452;2023-03-24T12:48:49;15.98;;;9.80;;
66353;SDS011;53150;48.296;16.452;2023-03-24T12:54:12;13.55;;;10.73;;
66353;SDS011;53150;48.296;16.452;2023-03-24T12:56:47;14.52;;;10.70;;
66353;SDS011;53150;48.296;16.452;2023-03-24T13:01:51;13.68;;;10.05;;
66353;SDS011;53150;48.296;16.452;2023-03-24T13:04:21;12.32;;;9.48;;
66353;SDS011;53150;48.296;16.452;2023-03-24T13:06:59;13.68;;;10.85;;
66353;SDS011;53150;48.296;16.452;2023-03-24T13:12:01;11.70;;;9.60;;
66353;SDS011;53150;48.296;16.452;2023-03-24T13:14:30;13.35;;;10.50;;
66353;SDS011;53150;48.296;16.452;2023-03-24T13:17:03;12.98;;;9.77;;
66353;SDS011;53150;48.296;16.452;2023-03-24T13:19:30;14.07;;;10.15;;
66353;SDS011;53150;48.296;16.452;2023-03-24T13:21:57;14.20;;;10.73;;
66353;SDS011;53150;48.296;16.452;2023-03-24T13:24:24;14.70;;;10.82;;
66353;SDS011;53150;48.296;16.452;2023-03-24T13:37:28;16.20;;;11.60;;
66353;SDS011;53150;48.296;16.452;2023-03-24T13:39:57;16.40;;;10.65;;
66353;SDS011;53150;48.296;16.452;2023-03-24T13:42:31;17.15;;;11.68;;
66353;SDS011;53150;48.296;16.452;2023-03-24T13:44:59;13.60;;;10.77;;
66353;SDS011;53150;48.296;16.452;2023-03-24T13:47:25;16.13;;;11.02;;
66353;SDS011;53150;48.296;16.452;2023-03-24T13:49:59;14.40;;;11.13;;
66353;SDS011;53150;48.296;16.452;2023-03-24T13:52:27;14.95;;;11.60;;
66353;SDS011;53150;48.296;16.452;2023-03-24T13:54:56;12.73;;;9.40;;
66353;SDS011;53150;48.296;16.452;2023-03-24T13:57:23;16.27;;;11.82;;
66353;SDS011;53150;48.296;16.452;2023-03-24T14:00:01;18.45;;;13.05;;
66353;SDS011;53150;48.296;16.452;2023-03-24T14:08:12;16.33;;;11.77;;
66353;SDS011;53150;48.296;16.452;2023-03-24T14:10:38;17.55;;;13.07;;
66353;SDS011;53150;48.296;16.452;2023-03-24T14:13:49;17.60;;;13.50;;
66353;SDS011;53150;48.296;16.452;2023-03-24T14:15:51;16.92;;;12.70;;
66353;SDS011;53150;48.296;16.452;2023-03-24T14:23:24;17.00;;;12.43;;
66353;SDS011;53150;48.296;16.452;2023-03-24T14:25:56;16.45;;;12.25;;
66353;SDS011;53150;48.296;16.452;2023-03-24T14:28:31;13.25;;;10.82;;
66353;SDS011;53150;48.296;16.452;2023-03-24T14:30:59;12.65;;;10.40;;
66353;SDS011;53150;48.296;16.452;2023-03-24T14:33:26;14.80;;;11.57;;
66353;SDS011;53150;48.296;16.452;2023-03-24T14:35:57;18.80;;;12.50;;
66353;SDS011;53150;48.296;16.452;2023-03-24T14:38:28;16.50;;;12.50;;
66353;SDS011;53150;48.296;16.452;2023-03-24T14:40:59;18.52;;;10.73;;
66353;SDS011;53150;48.296;16.452;2023-03-24T14:48:57;14.50;;;9.90;;
66353;SDS011;53150;48.296;16.452;2023-03-24T14:54:16;15.82;;;10.30;;
66353;SDS011;53150;48.296;16.452;2023-03-24T14:56:44;12.77;;;9.70;;
66353;SDS011;53150;48.296;16.452;2023-03-24T14:59:28;14.90;;;9.40;;
66353;SDS011;53150;48.296;16.452;2023-03-24T15:07:32;13.25;;;10.20;;
66353;SDS011;53150;48.296;16.452;2023-03-24T15:09:59;18.00;;;11.55;;
66353;SDS011;53150;48.296;16.452;2023-03-24T15:12:25;15.18;;;11.35;;
66353;SDS011;53150;48.296;16.452;2023-03-24T15:14:51;17.10;;;9.85;;
66353;SDS011;53150;48.296;16.452;2023-03-24T15:17:20;10.88;;;6.35;;
66353;SDS011;53150;48.296;16.452;2023-03-24T15:19:48;9.70;;;5.70;;
66353;SDS011;53150;48.296;16.452;2023-03-24T15:22:15;7.18;;;4.50;;
66353;SDS011;53150;48.296;16.452;2023-03-24T15:24:41;6.10;;;3.83;;
66353;SDS011;53150;48.296;16.452;2023-03-24T15:27:19;6.90;;;3.80;;
66353;SDS011;53150;48.296;16.452;2023-03-24T15:29:48;6.75;;;3.92;;
66353;SDS011;53150;48.296;16.452;2023-03-24T15:32:18;5.50;;;3.13;;
66353;SDS011;53150;48.296;16.452;2023-03-24T15:34:46;6.65;;;3.10;;
66353;SDS011;53150;48.296;16.452;2023-03-24T15:39:49;4.40;;;2.20;;
66353;SDS011;53150;48.296;16.452;2023-03-24T15:42:16;4.93;;;2.28;;
66353;SDS011;53150;48.296;16.452;2023-03-24T15:44:43;7.78;;;1.98;;
66353;SDS011;53150;48.296;16.452;2023-03-24T15:47:13;5.15;;;1.80;;
66353;SDS011;53150;48.296;16.452;2023-03-24T15:49:49;3.45;;;1.90;;
66353;SDS011;53150;48.296;16.452;2023-03-24T15:54:47;3.20;;;1.50;;
66353;SDS011;53150;48.296;16.452;2023-03-24T15:59:50;4.22;;;1.48;;
66353;SDS011;53150;48.296;16.452;2023-03-24T16:02:27;4.70;;;1.40;;
66353;SDS011;53150;48.296;16.452;2023-03-24T16:04:56;4.72;;;1.40;;
66353;SDS011;53150;48.296;16.452;2023-03-24T16:10:25;3.78;;;1.60;;
66353;SDS011;53150;48.296;16.452;2023-03-24T16:12:51;3.95;;;1.40;;
66353;SDS011;53150;48.296;16.452;2023-03-24T16:15:18;4.28;;;1.40;;
66353;SDS011;53150;48.296;16.452;2023-03-24T16:17:44;4.07;;;1.48;;
66353;SDS011;53150;48.296;16.452;2023-03-24T16:20:18;2.95;;;1.10;;
66353;SDS011;53150;48.296;16.452;2023-03-24T16:22:44;5.28;;;2.00;;
66353;SDS011;53150;48.296;16.452;2023-03-24T16:25:10;4.22;;;1.80;;
66353;SDS011;53150;48.296;16.452;2023-03-24T16:27:37;3.45;;;1.50;;
66353;SDS011;53150;48.296;16.452;2023-03-24T16:30:10;3.50;;;1.67;;
66353;SDS011;53150;48.296;16.452;2023-03-24T16:32:40;3.47;;;1.20;;
66353;SDS011;53150;48.296;16.452;2023-03-24T16:35:07;3.72;;;1.60;;
66353;SDS011;53150;48.296;16.452;2023-03-24T16:37:33;2.80;;;1.30;;
66353;SDS011;53150;48.296;16.452;2023-03-24T16:39:59;3.85;;;1.60;;
66353;SDS011;53150;48.296;16.452;2023-03-24T16:42:25;3.95;;;1.70;;
66353;SDS011;53150;48.296;16.452;2023-03-24T16:44:51;3.60;;;1.60;;
66353;SDS011;53150;48.296;16.452;2023-03-24T16:47:17;3.63;;;1.60;;